createdAt,value
2023-01-09T00:00:32.825Z,2.90
2023-01-09T00:05:00.848Z,2.80
2023-01-09T00:09:09.991Z,2.80
2023-01-09T00:13:18.495Z,2.80
2023-01-09T00:17:27.288Z,2.70
2023-01-09T00:21:36.536Z,2.30
2023-01-09T00:25:45.070Z,2.27
2023-01-09T00:29:53.617Z,2.50
2023-01-09T00:34:09.817Z,2.47
2023-01-09T00:38:18.471Z,2.50
2023-01-09T00:42:30.110Z,2.03
2023-01-09T00:46:42.396Z,2.17
2023-01-09T00:50:51.833Z,2.03
2023-01-09T00:55:01.303Z,1.90
2023-01-09T00:59:10.122Z,1.60
2023-01-09T01:03:18.678Z,2.60
2023-01-09T01:07:39.785Z,1.77
2023-01-09T01:11:48.391Z,2.20
2023-01-09T01:16:18.319Z,1.83
2023-01-09T01:20:27.736Z,1.83
2023-01-09T01:24:36.399Z,1.70
2023-01-09T01:28:45.073Z,1.97
2023-01-09T01:32:53.631Z,2.20
2023-01-09T01:37:02.383Z,2.17
2023-01-09T01:41:11.510Z,2.47
2023-01-09T01:45:23.048Z,2.40
2023-01-09T01:49:51.210Z,2.17
2023-01-09T01:54:03.188Z,2.50
2023-01-09T01:58:31.301Z,1.80
2023-01-09T02:02:39.964Z,2.50
2023-01-09T02:06:51.330Z,1.90
2023-01-09T02:11:00.890Z,2.20
2023-01-09T02:15:12.664Z,2.07
2023-01-09T02:19:45.193Z,2.10
2023-01-09T02:24:02.607Z,2.27
2023-01-09T02:28:25.997Z,1.80
2023-01-09T02:32:46.503Z,2.23
2023-01-09T02:37:04.096Z,1.87
2023-01-09T02:41:24.700Z,1.70
2023-01-09T02:45:33.278Z,1.70
2023-01-09T02:49:44.449Z,1.93
2023-01-09T02:54:13.974Z,2.17
2023-01-09T02:58:54.639Z,1.80
2023-01-09T03:03:16.426Z,2.30
2023-01-09T03:07:28.089Z,2.50
2023-01-09T03:11:39.785Z,2.10
2023-01-09T03:16:08.735Z,2.33
2023-01-09T03:20:20.644Z,2.23
2023-01-09T03:24:48.580Z,1.80
2023-01-09T03:28:57.768Z,2.40
2023-01-09T03:33:06.354Z,2.90
2023-01-09T03:37:14.879Z,2.70
2023-01-09T03:41:42.860Z,2.27
2023-01-09T03:45:51.528Z,2.60
2023-01-09T03:50:00.172Z,2.53
2023-01-09T03:54:08.703Z,2.27
2023-01-09T03:58:18.701Z,2.10
2023-01-09T04:02:27.267Z,2.72
2023-01-09T04:06:35.819Z,2.80
2023-01-09T04:10:49.246Z,2.73
2023-01-09T04:14:57.932Z,2.50
2023-01-09T04:19:06.565Z,2.20
2023-01-09T04:23:15.290Z,2.80
2023-01-09T04:27:24.137Z,2.13
2023-01-09T04:31:32.775Z,2.50
2023-01-09T04:35:41.385Z,2.30
2023-01-09T04:39:50.805Z,2.50
2023-01-09T04:43:59.459Z,2.70
2023-01-09T04:48:08.188Z,2.60
2023-01-09T04:52:16.820Z,2.07
2023-01-09T04:56:25.427Z,2.43
2023-01-09T05:00:35.652Z,2.33
2023-01-09T05:04:44.241Z,2.90
2023-01-09T05:09:12.226Z,2.40
2023-01-09T05:13:20.849Z,1.90
2023-01-09T05:17:29.482Z,1.90
2023-01-09T05:21:37.971Z,2.47
2023-01-09T05:25:46.539Z,2.20
2023-01-09T05:30:17.309Z,2.20
2023-01-09T05:34:25.394Z,2.43
2023-01-09T05:38:34.023Z,2.60
2023-01-09T05:42:44.300Z,2.10
2023-01-09T05:46:52.936Z,2.13
2023-01-09T05:51:01.549Z,2.17
2023-01-09T05:55:10.212Z,1.87
2023-01-09T05:59:18.827Z,2.07
2023-01-09T06:03:27.537Z,1.93
2023-01-09T06:07:37.804Z,3.97
2023-01-09T06:11:46.431Z,2.20
2023-01-09T06:15:54.991Z,2.23
2023-01-09T06:20:04.203Z,3.57
2023-01-09T06:24:12.835Z,2.10
2023-01-09T06:28:21.457Z,3.50
2023-01-09T06:32:49.660Z,2.43
2023-01-09T06:36:58.222Z,2.33
2023-01-09T06:41:07.066Z,2.40
2023-01-09T06:45:16.298Z,1.80
2023-01-09T06:49:25.188Z,2.23
2023-01-09T06:53:35.187Z,2.13
2023-01-09T06:57:43.878Z,1.70
2023-01-09T07:01:52.548Z,2.43
2023-01-09T07:06:01.351Z,2.35
2023-01-09T07:10:11.017Z,2.10
2023-01-09T07:14:19.556Z,2.50
2023-01-09T07:18:47.450Z,2.00
2023-01-09T07:22:56.028Z,2.67
2023-01-09T07:27:04.647Z,2.57
2023-01-09T07:31:13.334Z,2.45
2023-01-09T07:35:21.846Z,2.40
2023-01-09T07:39:30.394Z,2.87
2023-01-09T07:43:39.986Z,2.33
2023-01-09T07:47:48.529Z,1.93
2023-01-09T07:51:57.276Z,2.53
2023-01-09T07:56:06.399Z,3.17
2023-01-09T08:00:15.729Z,1.90
2023-01-09T08:04:24.627Z,2.20
2023-01-09T08:08:33.300Z,2.70
2023-01-09T08:12:44.747Z,2.10
2023-01-09T08:17:12.620Z,2.37
2023-01-09T08:21:21.199Z,2.43
2023-01-09T08:25:29.829Z,2.90
2023-01-09T08:29:38.468Z,2.37
2023-01-09T08:33:47.033Z,2.90
2023-01-09T08:38:15.041Z,2.00
2023-01-09T08:42:41.245Z,2.20
2023-01-09T08:47:08.191Z,2.30
2023-01-09T08:51:16.967Z,2.80
2023-01-09T08:55:26.034Z,2.80
2023-01-09T08:59:34.590Z,2.00
2023-01-09T09:03:43.140Z,2.33
2023-01-09T09:07:55.304Z,2.90
2023-01-09T09:12:03.850Z,2.77
2023-01-09T09:16:12.444Z,2.67
2023-01-09T09:20:22.637Z,1.87
2023-01-09T09:24:31.199Z,2.30
2023-01-09T09:28:39.984Z,3.17
2023-01-09T09:32:49.585Z,2.80
2023-01-09T09:36:58.135Z,2.03
2023-01-09T09:41:14.467Z,2.20
2023-01-09T09:45:41.161Z,1.53
2023-01-09T09:50:04.947Z,3.53
2023-01-09T09:54:22.448Z,2.33
2023-01-09T09:58:37.222Z,2.30
2023-01-09T10:03:06.685Z,2.50
2023-01-09T10:07:27.144Z,2.40
2023-01-09T10:11:44.775Z,2.53
2023-01-09T10:15:59.180Z,2.40
2023-01-09T10:20:13.753Z,1.80
2023-01-09T10:24:31.138Z,2.23
2023-01-09T10:28:42.749Z,3.10
2023-01-09T10:33:09.525Z,2.70
2023-01-09T10:37:21.081Z,2.43
2023-01-09T10:41:49.458Z,2.10
2023-01-09T10:46:01.088Z,2.43
2023-01-09T10:50:21.954Z,2.17
2023-01-09T10:54:30.890Z,2.20
2023-01-09T10:58:39.467Z,1.98
2023-01-09T11:02:48.662Z,1.90
2023-01-09T11:07:05.752Z,2.67
2023-01-09T11:11:17.440Z,2.70
2023-01-09T11:15:30.621Z,2.80
2023-01-09T11:19:44.921Z,2.53
2023-01-09T11:23:53.709Z,2.30
2023-01-09T11:28:08.265Z,2.67
2023-01-09T11:32:26.463Z,2.33
2023-01-09T11:36:35.103Z,2.27
2023-01-09T11:40:52.850Z,2.30
2023-01-09T11:45:01.694Z,2.57
2023-01-09T11:49:30.799Z,2.47
2023-01-09T11:53:47.665Z,2.60
2023-01-09T11:57:56.344Z,2.27
2023-01-09T12:02:23.035Z,2.67
2023-01-09T12:06:40.226Z,2.80
2023-01-09T12:11:25.222Z,2.20
2023-01-09T12:15:49.197Z,2.40
2023-01-09T12:20:07.143Z,3.13
2023-01-09T12:24:41.583Z,2.77
2023-01-09T12:29:10.173Z,2.70
2023-01-09T12:33:30.850Z,2.53
2023-01-09T12:37:54.362Z,2.40
2023-01-09T12:42:18.148Z,2.60
2023-01-09T12:46:29.804Z,2.70
2023-01-09T12:50:56.851Z,2.77
2023-01-09T12:55:13.018Z,3.00
2023-01-09T12:59:30.956Z,2.40
2023-01-09T13:03:48.504Z,2.50
2023-01-09T13:08:11.822Z,3.03
2023-01-09T13:12:22.956Z,2.90
2023-01-09T13:16:49.693Z,3.63
2023-01-09T13:20:58.423Z,2.83
2023-01-09T13:25:19.056Z,2.20
2023-01-09T13:29:45.603Z,2.63
2023-01-09T13:33:59.443Z,2.93
2023-01-09T13:38:11.151Z,2.80
2023-01-09T13:42:38.520Z,3.17
2023-01-09T13:46:49.460Z,2.87
2023-01-09T13:51:12.921Z,2.70
2023-01-09T13:55:24.684Z,2.80
2023-01-09T13:59:33.349Z,3.20
2023-01-09T14:03:41.998Z,3.93
2023-01-09T14:08:06.776Z,4.53
2023-01-09T14:12:17.276Z,3.83
2023-01-09T14:16:27.345Z,3.73
2023-01-09T14:20:57.158Z,3.33
2023-01-09T14:25:09.077Z,3.07
2023-01-09T14:29:35.915Z,3.37
2023-01-09T14:33:47.616Z,2.90
2023-01-09T14:38:11.399Z,3.20
2023-01-09T14:42:23.033Z,3.20
2023-01-09T14:46:35.620Z,2.60
2023-01-09T14:50:54.503Z,2.73
2023-01-09T14:55:05.800Z,3.43
2023-01-09T14:59:15.601Z,2.80
2023-01-09T15:03:25.818Z,2.67
2023-01-09T15:07:38.958Z,2.70
2023-01-09T15:11:53.287Z,3.10
2023-01-09T15:16:03.305Z,3.50
2023-01-09T15:20:18.699Z,3.00
2023-01-09T15:24:29.948Z,3.90
2023-01-09T15:28:41.745Z,3.23
2023-01-09T15:32:52.110Z,3.53
2023-01-09T15:37:02.987Z,3.50
2023-01-09T15:41:16.414Z,4.43
2023-01-09T15:45:28.113Z,3.17
2023-01-09T15:49:37.400Z,3.40
2023-01-09T15:53:51.642Z,4.20
2023-01-09T15:58:00.217Z,3.03
2023-01-09T16:02:30.073Z,3.77
2023-01-09T16:06:45.535Z,3.40
2023-01-09T16:10:57.181Z,4.47
2023-01-09T16:15:07.754Z,3.67
2023-01-09T16:19:34.223Z,3.53
2023-01-09T16:23:45.917Z,3.77
2023-01-09T16:28:30.756Z,3.80
2023-01-09T16:32:51.394Z,4.07
2023-01-09T16:37:00.079Z,4.50
2023-01-09T16:41:40.370Z,3.70
2023-01-09T16:45:49.166Z,4.03
2023-01-09T16:50:17.207Z,4.07
2023-01-09T16:54:25.837Z,4.07
2023-01-09T16:58:36.321Z,4.70
2023-01-09T17:02:45.010Z,4.17
2023-01-09T17:06:53.603Z,3.97
2023-01-09T17:11:03.912Z,3.10
2023-01-09T17:15:12.469Z,4.00
2023-01-09T17:19:21.660Z,2.63
2023-01-09T17:23:30.525Z,3.10
2023-01-09T17:27:57.087Z,4.00
2023-01-09T17:32:05.969Z,3.10
2023-01-09T17:36:23.351Z,4.40
2023-01-09T17:40:32.567Z,3.93
2023-01-09T17:44:41.132Z,3.40
2023-01-09T17:49:10.567Z,3.60
2023-01-09T17:53:20.769Z,4.27
2023-01-09T17:57:29.254Z,4.13
2023-01-09T18:01:37.913Z,4.13
2023-01-09T18:05:46.946Z,4.90
2023-01-09T18:09:55.494Z,4.93
2023-01-09T18:14:04.153Z,5.30
2023-01-09T18:18:13.189Z,6.67
2023-01-09T18:22:21.718Z,4.40
2023-01-09T18:26:30.244Z,4.23
2023-01-09T18:30:38.780Z,4.80
2023-01-09T18:34:48.223Z,6.03
2023-01-09T18:38:58.721Z,7.07
2023-01-09T18:43:07.899Z,7.00
2023-01-09T18:47:16.403Z,6.43
2023-01-09T18:51:26.684Z,5.23
2023-01-09T18:55:37.641Z,5.90
2023-01-09T18:59:46.174Z,5.20
2023-01-09T19:03:55.656Z,5.73
2023-01-09T19:08:04.436Z,4.95
2023-01-09T19:12:13.660Z,4.80
2023-01-09T19:16:22.426Z,5.10
2023-01-09T19:20:31.033Z,6.10
2023-01-09T19:24:39.649Z,5.23
2023-01-09T19:28:50.094Z,5.13
2023-01-09T19:32:58.702Z,5.00
2023-01-09T19:37:09.435Z,5.23
2023-01-09T19:41:19.149Z,4.60
2023-01-09T19:45:27.922Z,4.60
2023-01-09T19:49:36.487Z,4.63
2023-01-09T19:53:45.490Z,4.40
2023-01-09T19:57:54.045Z,4.90
2023-01-09T20:02:03.163Z,5.45
2023-01-09T20:06:31.842Z,4.63
2023-01-09T20:10:40.544Z,4.97
2023-01-09T20:14:49.783Z,5.10
2023-01-09T20:18:59.581Z,4.33
2023-01-09T20:23:08.508Z,3.90
2023-01-09T20:27:36.936Z,6.20
2023-01-09T20:31:45.747Z,4.23
2023-01-09T20:35:54.311Z,4.77
2023-01-09T20:40:02.875Z,4.80
2023-01-09T20:44:13.739Z,5.73
2023-01-09T20:48:22.280Z,5.10
2023-01-09T20:52:30.860Z,4.50
2023-01-09T20:56:39.459Z,4.33
2023-01-09T21:00:48.121Z,4.67
2023-01-09T21:04:56.706Z,4.33
2023-01-09T21:09:06.676Z,4.53
2023-01-09T21:13:15.295Z,4.87
2023-01-09T21:17:24.097Z,4.73
2023-01-09T21:21:32.759Z,4.50
2023-01-09T21:25:43.978Z,4.47
2023-01-09T21:29:54.625Z,4.80
2023-01-09T21:34:05.342Z,3.57
2023-01-09T21:38:14.030Z,4.50
2023-01-09T21:42:40.784Z,4.00
2023-01-09T21:47:08.521Z,2.97
2023-01-09T21:51:17.193Z,3.67
2023-01-09T21:55:25.829Z,2.67
2023-01-09T21:59:34.467Z,3.50
2023-01-09T22:03:44.592Z,3.57
2023-01-09T22:07:53.344Z,4.13
2023-01-09T22:12:01.974Z,3.83
2023-01-09T22:16:11.639Z,3.10
2023-01-09T22:20:20.257Z,3.50
2023-01-09T22:24:28.989Z,3.77
2023-01-09T22:28:37.530Z,4.07
2023-01-09T22:32:46.097Z,3.70
2023-01-09T22:36:54.699Z,4.00
2023-01-09T22:41:03.886Z,4.30
2023-01-09T22:45:12.647Z,4.10
2023-01-09T22:49:21.272Z,4.30
2023-01-09T22:53:30.930Z,3.90
2023-01-09T22:57:39.653Z,4.33
2023-01-09T23:01:48.255Z,4.93
2023-01-09T23:06:11.145Z,4.80
2023-01-09T23:10:19.740Z,5.00
2023-01-09T23:14:28.656Z,5.03
2023-01-09T23:18:37.253Z,6.93
2023-01-09T23:22:45.781Z,5.27
2023-01-09T23:26:55.056Z,5.07
2023-01-09T23:31:03.773Z,4.73
2023-01-09T23:35:12.962Z,4.77
2023-01-09T23:39:34.340Z,4.87
2023-01-09T23:43:43.820Z,3.90
2023-01-09T23:47:52.364Z,5.40
2023-01-09T23:52:02.487Z,4.70
2023-01-09T23:56:11.093Z,4.60
